createdAt,value
2017-09-19T00:01:35.115Z,2.73
2017-09-19T00:04:02.693Z,5.30
2017-09-19T00:06:30.258Z,3.87
2017-09-19T00:08:57.774Z,2.80
2017-09-19T00:11:25.316Z,3.40
2017-09-19T00:13:52.831Z,4.10
2017-09-19T00:16:20.370Z,3.97
2017-09-19T00:18:47.891Z,3.90
2017-09-19T00:21:15.423Z,4.00
2017-09-19T00:23:43.003Z,2.93
2017-09-19T00:26:10.520Z,5.27
2017-09-19T00:28:38.060Z,4.40
2017-09-19T00:31:05.587Z,7.13
2017-09-19T00:33:33.157Z,3.17
2017-09-19T00:36:00.696Z,6.53
2017-09-19T00:38:28.233Z,4.07
2017-09-19T00:40:55.755Z,3.70
2017-09-19T00:43:23.289Z,5.00
2017-09-19T00:45:50.849Z,3.70
2017-09-19T00:48:19.146Z,3.47
2017-09-19T00:50:46.693Z,4.33
2017-09-19T00:53:14.249Z,5.10
2017-09-19T00:55:42.565Z,4.60
2017-09-19T00:58:10.090Z,4.67
2017-09-19T01:00:37.985Z,5.40
2017-09-19T01:03:05.534Z,5.63
2017-09-19T01:05:33.057Z,5.20
2017-09-19T01:08:01.166Z,4.80
2017-09-19T01:10:28.722Z,4.87
2017-09-19T01:12:56.291Z,3.87
2017-09-19T01:15:23.802Z,3.87
2017-09-19T01:17:51.333Z,3.53
2017-09-19T01:20:18.983Z,4.00
2017-09-19T01:22:46.483Z,4.40
2017-09-19T01:25:14.013Z,3.87
2017-09-19T01:27:41.524Z,5.83
2017-09-19T01:30:09.419Z,6.00
2017-09-19T01:32:36.917Z,5.40
2017-09-19T01:35:04.420Z,4.37
2017-09-19T01:37:31.942Z,4.17
2017-09-19T01:39:59.472Z,5.40
2017-09-19T01:42:27.111Z,5.10
2017-09-19T01:44:54.617Z,6.13
2017-09-19T01:47:22.149Z,5.60
2017-09-19T01:49:49.662Z,5.30
2017-09-19T01:52:17.193Z,5.20
2017-09-19T01:54:44.718Z,7.33
2017-09-19T01:57:12.240Z,4.03
2017-09-19T01:59:39.771Z,7.40
2017-09-19T02:02:07.303Z,6.03
2017-09-19T02:04:34.824Z,9.50
2017-09-19T02:07:02.416Z,10.53
2017-09-19T02:09:29.950Z,6.37
2017-09-19T02:11:57.464Z,6.47
2017-09-19T02:14:24.995Z,7.10
2017-09-19T02:16:52.529Z,8.40
2017-09-19T02:19:20.039Z,10.10
2017-09-19T02:21:48.352Z,7.73
2017-09-19T02:24:19.991Z,7.10
2017-09-19T02:26:47.657Z,8.00
2017-09-19T02:29:15.166Z,7.90
2017-09-19T02:31:42.703Z,8.90
2017-09-19T02:34:10.238Z,10.53
2017-09-19T02:36:37.832Z,8.53
2017-09-19T02:39:05.413Z,7.23
2017-09-19T02:41:32.941Z,9.00
2017-09-19T02:44:00.442Z,5.80
2017-09-19T02:46:27.969Z,8.63
2017-09-19T02:48:55.508Z,7.50
2017-09-19T02:51:23.046Z,6.73
2017-09-19T02:53:50.571Z,7.53
2017-09-19T02:56:18.161Z,5.40
2017-09-19T02:58:45.689Z,8.80
2017-09-19T03:01:13.191Z,6.67
2017-09-19T03:03:40.707Z,6.30
2017-09-19T03:06:08.201Z,8.30
2017-09-19T03:08:35.727Z,9.00
2017-09-19T03:11:04.040Z,7.30
2017-09-19T03:13:31.587Z,9.30
2017-09-19T03:15:59.120Z,12.10
2017-09-19T03:18:26.647Z,9.10
2017-09-19T03:20:54.176Z,8.57
2017-09-19T03:23:21.716Z,8.70
2017-09-19T03:25:50.021Z,8.97
2017-09-19T03:28:17.550Z,9.07
2017-09-19T03:30:45.845Z,8.67
2017-09-19T03:33:14.119Z,7.33
2017-09-19T03:35:42.425Z,6.50
2017-09-19T03:38:09.941Z,10.93
2017-09-19T03:40:37.450Z,7.73
2017-09-19T03:43:04.967Z,6.23
2017-09-19T03:45:32.489Z,12.73
2017-09-19T03:48:00.011Z,7.87
2017-09-19T03:50:27.827Z,7.63
2017-09-19T03:52:55.338Z,8.37
2017-09-19T03:55:22.872Z,10.27
2017-09-19T03:57:50.389Z,6.23
2017-09-19T04:00:17.916Z,5.43
2017-09-19T04:02:45.470Z,7.27
2017-09-19T04:05:13.086Z,8.73
2017-09-19T04:07:40.623Z,7.70
2017-09-19T04:10:08.168Z,5.40
2017-09-19T04:12:35.696Z,6.80
2017-09-19T04:15:03.266Z,7.00
2017-09-19T04:17:30.843Z,9.70
2017-09-19T04:19:58.798Z,5.77
2017-09-19T04:22:26.355Z,9.70
2017-09-19T04:24:53.871Z,7.37
2017-09-19T04:27:21.410Z,8.50
2017-09-19T04:29:48.939Z,8.50
2017-09-19T04:32:16.458Z,8.53
2017-09-19T04:34:44.004Z,8.10
2017-09-19T04:37:12.328Z,9.23
2017-09-19T04:39:40.010Z,11.10
2017-09-19T04:42:07.545Z,9.70
2017-09-19T04:44:35.060Z,9.73
2017-09-19T04:47:02.594Z,9.67
2017-09-19T04:49:30.122Z,13.43
2017-09-19T04:51:57.690Z,8.17
2017-09-19T04:54:25.205Z,8.90
2017-09-19T04:56:52.793Z,8.50
2017-09-19T04:59:20.353Z,6.20
2017-09-19T05:01:47.879Z,9.07
2017-09-19T05:04:16.201Z,8.43
2017-09-19T05:06:43.747Z,11.40
2017-09-19T05:09:11.279Z,11.13
2017-09-19T05:11:38.830Z,15.13
2017-09-19T05:14:06.363Z,8.50
2017-09-19T05:16:34.688Z,6.50
2017-09-19T05:19:02.777Z,9.20
2017-09-19T05:21:30.309Z,11.60
2017-09-19T05:23:57.828Z,9.40
2017-09-19T05:26:25.355Z,9.17
2017-09-19T05:28:52.877Z,10.97
2017-09-19T05:31:20.404Z,8.67
2017-09-19T05:33:47.972Z,11.47
2017-09-19T05:36:15.513Z,8.73
2017-09-19T05:38:43.064Z,14.97
2017-09-19T05:41:10.608Z,11.37
2017-09-19T05:43:38.117Z,9.63
2017-09-19T05:46:06.423Z,14.30
2017-09-19T05:48:33.940Z,8.60
2017-09-19T05:51:01.547Z,10.70
2017-09-19T05:53:29.055Z,11.30
2017-09-19T05:55:56.852Z,11.00
2017-09-19T05:58:24.394Z,8.80
2017-09-19T06:00:51.898Z,9.43
2017-09-19T06:03:19.454Z,10.07
2017-09-19T06:05:46.969Z,9.70
2017-09-19T06:08:14.511Z,9.87
2017-09-19T06:10:42.817Z,9.07
2017-09-19T06:13:10.354Z,10.73
2017-09-19T06:15:37.903Z,9.10
2017-09-19T06:18:05.423Z,12.97
2017-09-19T06:20:32.987Z,8.40
2017-09-19T06:23:00.503Z,7.70
2017-09-19T06:25:28.032Z,8.67
2017-09-19T06:27:55.561Z,8.97
2017-09-19T06:30:23.133Z,12.57
2017-09-19T06:32:50.680Z,10.33
2017-09-19T06:35:18.199Z,9.60
2017-09-19T06:37:45.723Z,10.77
2017-09-19T06:40:13.252Z,13.23
2017-09-19T06:42:40.834Z,10.93
2017-09-19T06:45:08.371Z,14.00
2017-09-19T06:47:35.891Z,10.30
2017-09-19T06:50:03.415Z,10.27
2017-09-19T06:52:30.958Z,11.70
2017-09-19T06:54:58.511Z,12.07
2017-09-19T06:57:26.032Z,11.20
2017-09-19T06:59:53.554Z,11.80
2017-09-19T07:02:21.084Z,13.40
2017-09-19T07:04:48.638Z,11.47
2017-09-19T07:07:16.185Z,13.43
2017-09-19T07:09:43.686Z,9.47
2017-09-19T07:12:11.216Z,11.93
2017-09-19T07:14:38.734Z,9.37
2017-09-19T07:17:06.295Z,12.00
2017-09-19T07:19:33.830Z,10.87
2017-09-19T07:22:01.346Z,11.50
2017-09-19T07:24:28.869Z,10.50
2017-09-19T07:26:56.396Z,10.30
2017-09-19T07:29:23.924Z,11.53
2017-09-19T07:31:51.694Z,13.03
2017-09-19T07:34:19.581Z,9.40
2017-09-19T07:36:47.117Z,11.53
2017-09-19T07:39:14.628Z,10.77
2017-09-19T07:41:42.161Z,9.50
2017-09-19T07:44:09.682Z,8.70
2017-09-19T07:46:37.207Z,9.33
2017-09-19T07:49:04.757Z,8.67
2017-09-19T07:51:32.295Z,7.73
2017-09-19T07:53:59.832Z,11.30
2017-09-19T07:56:27.352Z,7.07
2017-09-19T07:58:54.891Z,10.47
2017-09-19T08:01:22.395Z,9.03
2017-09-19T08:03:49.914Z,7.50
2017-09-19T08:06:17.463Z,9.87
2017-09-19T08:08:45.783Z,6.70
2017-09-19T08:11:13.315Z,9.83
2017-09-19T08:13:40.849Z,8.33
2017-09-19T08:16:08.414Z,8.73
2017-09-19T08:18:36.705Z,9.87
2017-09-19T08:21:04.230Z,6.77
2017-09-19T08:23:31.760Z,8.07
2017-09-19T08:25:59.680Z,6.50
2017-09-19T08:28:27.183Z,7.57
2017-09-19T08:30:54.810Z,5.83
2017-09-19T08:33:22.360Z,5.50
2017-09-19T08:35:50.651Z,4.03
2017-09-19T08:38:18.177Z,4.10
2017-09-19T08:40:45.754Z,7.93
2017-09-19T08:43:14.098Z,3.47
2017-09-19T08:45:41.635Z,3.80
2017-09-19T08:48:09.250Z,3.93
2017-09-19T08:50:36.788Z,7.93
2017-09-19T08:53:04.322Z,5.70
2017-09-19T08:55:31.879Z,4.20
2017-09-19T08:57:59.437Z,4.13
2017-09-19T09:00:26.958Z,3.50
2017-09-19T09:02:55.013Z,3.40
2017-09-19T09:05:22.519Z,2.77
2017-09-19T09:07:50.048Z,2.00
2017-09-19T09:10:17.573Z,2.93
2017-09-19T09:12:45.121Z,2.40
2017-09-19T09:15:12.654Z,2.47
2017-09-19T09:17:40.201Z,2.40
2017-09-19T09:20:07.746Z,2.60
2017-09-19T09:22:36.071Z,2.47
2017-09-19T09:25:03.662Z,3.37
2017-09-19T09:27:31.183Z,2.70
2017-09-19T09:29:58.928Z,2.90
2017-09-19T09:32:26.446Z,2.97
2017-09-19T09:34:54.365Z,2.93
2017-09-19T09:37:21.884Z,2.70
2017-09-19T09:39:49.426Z,3.00
2017-09-19T09:42:17.030Z,3.60
2017-09-19T09:44:44.597Z,4.10
2017-09-19T09:47:12.158Z,4.60
2017-09-19T09:49:39.669Z,3.63
2017-09-19T09:52:07.259Z,3.63
2017-09-19T09:54:34.788Z,7.80
2017-09-19T09:57:02.356Z,3.10
2017-09-19T09:59:29.915Z,2.77
2017-09-19T10:01:57.437Z,2.53
2017-09-19T10:04:24.973Z,2.63
2017-09-19T10:06:52.522Z,3.03
2017-09-19T10:09:20.045Z,4.83
2017-09-19T10:11:47.579Z,3.30
2017-09-19T10:14:15.101Z,2.30
2017-09-19T10:16:42.667Z,4.90
2017-09-19T10:19:10.226Z,4.30
2017-09-19T10:21:37.764Z,3.23
2017-09-19T10:24:05.338Z,1.90
2017-09-19T10:26:32.875Z,2.00
2017-09-19T10:29:00.415Z,2.00
2017-09-19T10:31:27.994Z,2.53
2017-09-19T10:33:55.555Z,2.13
2017-09-19T10:36:23.117Z,1.90
2017-09-19T10:38:50.614Z,4.80
2017-09-19T10:41:18.211Z,3.20
2017-09-19T10:43:45.764Z,2.77
2017-09-19T10:46:14.094Z,2.33
2017-09-19T10:48:41.634Z,2.30
2017-09-19T10:51:09.467Z,2.30
2017-09-19T10:53:37.886Z,3.90
2017-09-19T10:56:06.385Z,1.93
2017-09-19T10:58:33.938Z,2.03
2017-09-19T11:01:01.579Z,2.83
2017-09-19T11:03:29.982Z,3.17
2017-09-19T11:05:57.617Z,2.00
2017-09-19T11:08:25.553Z,2.50
2017-09-19T11:10:53.952Z,2.30
2017-09-19T11:13:23.449Z,2.80
2017-09-19T11:15:53.220Z,2.53
2017-09-19T11:18:20.776Z,2.43
2017-09-19T11:20:49.028Z,1.90
2017-09-19T11:23:16.571Z,6.50
2017-09-19T11:25:44.613Z,1.70
2017-09-19T11:28:12.889Z,2.20
2017-09-19T11:30:40.431Z,2.00
2017-09-19T11:33:07.988Z,1.83
2017-09-19T11:35:35.563Z,5.80
2017-09-19T11:38:03.123Z,6.60
2017-09-19T11:40:30.667Z,11.73
2017-09-19T11:42:58.253Z,3.57
2017-09-19T11:45:25.802Z,2.07
2017-09-19T11:47:53.352Z,4.77
2017-09-19T11:50:20.877Z,5.93
2017-09-19T11:52:48.628Z,3.90
2017-09-19T11:55:16.215Z,3.23
2017-09-19T11:57:43.739Z,2.57
2017-09-19T12:00:11.306Z,2.53
2017-09-19T12:02:38.870Z,3.20
2017-09-19T12:05:06.417Z,2.70
2017-09-19T12:07:34.725Z,5.43
2017-09-19T12:10:02.276Z,3.70
2017-09-19T12:12:29.799Z,2.57
2017-09-19T12:14:57.333Z,2.50
2017-09-19T12:17:24.870Z,2.90
2017-09-19T12:19:52.415Z,2.37
2017-09-19T12:22:19.968Z,2.90
2017-09-19T12:24:47.497Z,4.00
2017-09-19T12:27:15.091Z,2.20
2017-09-19T12:29:42.670Z,1.70
2017-09-19T12:32:10.212Z,3.00
2017-09-19T12:34:38.163Z,1.83
2017-09-19T12:37:05.699Z,2.67
2017-09-19T12:39:33.293Z,2.10
2017-09-19T12:42:00.852Z,1.57
2017-09-19T12:44:28.411Z,1.80
2017-09-19T12:46:55.930Z,1.87
2017-09-19T12:49:23.448Z,1.70
2017-09-19T12:51:50.976Z,2.30
2017-09-19T12:54:18.512Z,2.30
2017-09-19T12:56:46.037Z,3.77
2017-09-19T12:59:14.363Z,3.07
2017-09-19T13:01:41.875Z,3.40
2017-09-19T13:04:09.474Z,2.10
2017-09-19T13:06:37.010Z,2.50
2017-09-19T13:09:04.899Z,2.10
2017-09-19T13:11:32.440Z,1.60
2017-09-19T13:13:59.962Z,1.77
2017-09-19T13:16:27.504Z,1.80
2017-09-19T13:18:55.034Z,1.77
2017-09-19T13:21:22.619Z,1.73
2017-09-19T13:23:50.137Z,1.63
2017-09-19T13:26:17.676Z,1.90
2017-09-19T13:28:46.115Z,1.80
2017-09-19T13:31:26.446Z,2.93
2017-09-19T13:33:54.005Z,1.70
2017-09-19T13:36:21.843Z,1.30
2017-09-19T13:38:50.128Z,1.40
2017-09-19T13:41:17.740Z,1.80
2017-09-19T13:43:45.311Z,1.90
2017-09-19T13:46:12.834Z,1.70
2017-09-19T13:48:40.381Z,1.70
2017-09-19T13:51:07.900Z,2.27
2017-09-19T13:53:35.434Z,1.70
2017-09-19T13:56:02.991Z,1.20
2017-09-19T13:58:30.515Z,1.40
2017-09-19T14:00:58.069Z,1.50
2017-09-19T14:03:25.596Z,1.70
2017-09-19T14:05:53.960Z,3.40
2017-09-19T14:08:21.494Z,1.30
2017-09-19T14:10:49.449Z,1.10
2017-09-19T14:13:17.006Z,1.20
2017-09-19T14:15:44.626Z,1.20
2017-09-19T14:18:13.364Z,1.20
2017-09-19T14:20:40.904Z,1.40
2017-09-19T14:23:08.469Z,1.40
2017-09-19T14:25:36.002Z,1.27
2017-09-19T14:28:04.000Z,2.33
2017-09-19T14:30:31.538Z,1.60
2017-09-19T14:32:59.077Z,1.83
2017-09-19T14:35:26.607Z,8.20
2017-09-19T14:37:54.189Z,3.00
2017-09-19T14:40:22.100Z,2.13
2017-09-19T14:42:53.032Z,2.23
2017-09-19T14:45:20.576Z,5.00
2017-09-19T14:47:48.148Z,6.70
2017-09-19T14:50:15.700Z,11.40
2017-09-19T14:52:43.522Z,4.33
2017-09-19T14:55:11.058Z,9.20
2017-09-19T14:57:38.597Z,5.10
2017-09-19T15:00:06.143Z,6.17
2017-09-19T15:02:33.691Z,8.10
2017-09-19T15:05:01.229Z,5.47
2017-09-19T15:07:28.907Z,7.37
2017-09-19T15:09:56.498Z,9.33
2017-09-19T15:12:24.047Z,8.00
2017-09-19T15:14:51.596Z,9.60
2017-09-19T15:17:19.127Z,7.80
2017-09-19T15:19:47.436Z,6.13
2017-09-19T15:22:15.018Z,7.00
2017-09-19T15:24:42.551Z,6.67
2017-09-19T15:27:10.124Z,6.20
2017-09-19T15:29:37.669Z,7.87
2017-09-19T15:32:05.548Z,8.23
2017-09-19T15:34:39.554Z,6.07
2017-09-19T15:37:18.695Z,5.40
2017-09-19T15:39:46.231Z,5.80
2017-09-19T15:42:13.813Z,6.27
2017-09-19T15:44:42.171Z,7.37
2017-09-19T15:47:09.751Z,12.80
2017-09-19T15:49:37.296Z,7.93
2017-09-19T15:52:04.814Z,6.27
2017-09-19T15:54:32.665Z,12.17
2017-09-19T15:57:00.240Z,7.30
2017-09-19T15:59:28.612Z,8.33
2017-09-19T16:01:56.168Z,7.60
2017-09-19T16:04:23.744Z,7.07
2017-09-19T16:06:51.292Z,9.03
2017-09-19T16:09:18.829Z,8.07
2017-09-19T16:11:46.675Z,7.67
2017-09-19T16:14:14.215Z,9.10
2017-09-19T16:16:41.796Z,8.07
2017-09-19T16:19:09.420Z,9.43
2017-09-19T16:21:36.960Z,8.73
2017-09-19T16:24:04.811Z,10.20
2017-09-19T16:26:32.344Z,11.30
2017-09-19T16:28:59.932Z,9.70
2017-09-19T16:31:27.586Z,10.90
2017-09-19T16:33:55.469Z,9.10
2017-09-19T16:36:23.044Z,9.30
2017-09-19T16:38:51.349Z,9.97
2017-09-19T16:41:18.885Z,9.43
2017-09-19T16:43:46.481Z,10.90
2017-09-19T16:46:14.035Z,11.47
2017-09-19T16:48:41.591Z,12.17
2017-09-19T16:51:09.534Z,10.37
2017-09-19T16:53:37.828Z,12.43
2017-09-19T16:56:05.375Z,10.90
2017-09-19T16:58:32.909Z,11.53
2017-09-19T17:01:00.467Z,13.47
2017-09-19T17:03:28.433Z,13.10
2017-09-19T17:05:55.960Z,12.07
2017-09-19T17:08:23.513Z,15.33
2017-09-19T17:10:51.189Z,15.17
2017-09-19T17:13:18.763Z,14.90
2017-09-19T17:15:46.303Z,14.50
2017-09-19T17:18:14.196Z,15.70
2017-09-19T17:20:41.750Z,15.83
2017-09-19T17:23:09.297Z,16.40
2017-09-19T17:25:36.839Z,15.00
2017-09-19T17:28:04.392Z,15.87
2017-09-19T17:30:31.943Z,15.30
2017-09-19T17:32:59.530Z,15.37
2017-09-19T17:35:27.081Z,12.63
2017-09-19T17:37:54.606Z,17.20
2017-09-19T17:40:22.156Z,14.00
2017-09-19T17:42:50.446Z,16.67
2017-09-19T17:45:17.991Z,17.73
2017-09-19T17:47:45.549Z,18.23
2017-09-19T17:50:13.958Z,15.67
2017-09-19T17:52:41.602Z,25.50
2017-09-19T17:55:09.209Z,25.93
2017-09-19T17:57:36.760Z,20.83
2017-09-19T18:00:04.306Z,20.03
2017-09-19T18:02:31.847Z,21.47
2017-09-19T18:04:59.397Z,26.83
2017-09-19T18:07:26.977Z,26.30
2017-09-19T18:09:54.618Z,20.07
2017-09-19T18:12:22.189Z,21.73
2017-09-19T18:14:50.253Z,20.73
2017-09-19T18:17:17.817Z,19.97
2017-09-19T18:19:45.346Z,19.50
2017-09-19T18:22:13.672Z,20.97
2017-09-19T18:24:41.211Z,19.47
2017-09-19T18:27:09.256Z,21.90
2017-09-19T18:29:37.573Z,19.27
2017-09-19T18:32:05.934Z,21.57
2017-09-19T18:34:33.487Z,21.33
2017-09-19T18:37:01.035Z,22.40
2017-09-19T18:39:28.602Z,19.13
2017-09-19T18:41:56.202Z,17.70
2017-09-19T18:44:23.770Z,22.10
2017-09-19T18:46:51.303Z,21.50
2017-09-19T18:49:19.187Z,19.70
2017-09-19T18:51:46.729Z,19.83
2017-09-19T18:54:15.054Z,18.90
2017-09-19T18:56:42.634Z,19.13
2017-09-19T18:59:14.981Z,18.10
2017-09-19T19:01:42.587Z,20.27
2017-09-19T19:04:10.128Z,19.97
2017-09-19T19:06:37.841Z,22.00
2017-09-19T19:09:06.176Z,22.77
2017-09-19T19:11:33.729Z,21.53
2017-09-19T19:14:01.289Z,20.70
2017-09-19T19:16:28.835Z,17.50
2017-09-19T19:18:57.170Z,21.10
2017-09-19T19:21:24.705Z,22.30
2017-09-19T19:23:52.269Z,20.73
2017-09-19T19:26:19.864Z,21.77
2017-09-19T19:28:47.428Z,21.93
2017-09-19T19:31:14.980Z,24.67
2017-09-19T19:33:42.545Z,21.90
2017-09-19T19:36:10.106Z,24.70
2017-09-19T19:38:37.678Z,22.60
2017-09-19T19:41:05.258Z,27.07
2017-09-19T19:43:33.076Z,26.90
2017-09-19T19:46:00.637Z,29.93
2017-09-19T19:48:28.470Z,25.30
2017-09-19T19:50:56.476Z,25.00
2017-09-19T19:53:24.033Z,26.93
2017-09-19T19:55:51.618Z,29.10
2017-09-19T19:58:19.967Z,31.20
2017-09-19T20:00:47.525Z,28.20
2017-09-19T20:03:15.124Z,26.50
2017-09-19T20:05:42.699Z,23.53
2017-09-19T20:08:10.261Z,26.33
2017-09-19T20:10:37.857Z,29.20
2017-09-19T20:13:05.371Z,27.30
2017-09-19T20:15:32.958Z,25.23
2017-09-19T20:18:01.250Z,28.40
2017-09-19T20:20:28.797Z,25.23
2017-09-19T20:22:56.321Z,27.57
2017-09-19T20:25:23.884Z,27.27
2017-09-19T20:27:51.532Z,25.40
2017-09-19T20:30:19.094Z,22.30
2017-09-19T20:32:47.435Z,24.57
2017-09-19T20:35:14.982Z,30.17
2017-09-19T20:37:42.538Z,30.40
2017-09-19T20:40:10.115Z,23.83
2017-09-19T20:42:37.964Z,27.30
2017-09-19T20:45:05.531Z,27.60
2017-09-19T20:47:33.071Z,31.10
2017-09-19T20:50:00.619Z,36.10
2017-09-19T20:52:28.210Z,32.50
2017-09-19T20:54:55.779Z,28.47
2017-09-19T20:57:23.360Z,26.33
2017-09-19T20:59:50.920Z,26.97
2017-09-19T21:02:18.456Z,31.40
2017-09-19T21:04:51.569Z,30.70
2017-09-19T21:07:24.821Z,25.70
2017-09-19T21:09:58.269Z,28.50
2017-09-19T21:12:31.377Z,25.33
2017-09-19T21:15:04.616Z,30.00
2017-09-19T21:17:37.841Z,27.70
2017-09-19T21:20:05.644Z,27.30
2017-09-19T21:22:33.202Z,27.83
2017-09-19T21:25:00.780Z,36.03
2017-09-19T21:27:28.334Z,29.43
2017-09-19T21:29:55.919Z,30.30
2017-09-19T21:32:23.508Z,28.13
2017-09-19T21:34:51.870Z,30.90
2017-09-19T21:37:19.433Z,26.20
2017-09-19T21:39:46.967Z,28.03
2017-09-19T21:42:14.792Z,32.57
2017-09-19T21:44:42.324Z,30.40
2017-09-19T21:47:10.630Z,32.20
2017-09-19T21:49:38.207Z,31.77
2017-09-19T21:52:05.769Z,28.47
2017-09-19T21:54:33.319Z,28.80
2017-09-19T21:57:00.842Z,26.90
2017-09-19T21:59:29.155Z,26.70
2017-09-19T22:01:56.692Z,27.67
2017-09-19T22:04:24.489Z,27.00
2017-09-19T22:06:52.041Z,34.97
2017-09-19T22:09:19.550Z,32.40
2017-09-19T22:11:47.860Z,48.90
2017-09-19T22:14:15.378Z,36.00
2017-09-19T22:16:42.954Z,33.30
2017-09-19T22:19:11.328Z,37.20
2017-09-19T22:21:38.892Z,34.30
2017-09-19T22:24:07.181Z,31.03
2017-09-19T22:26:34.737Z,34.77
2017-09-19T22:29:03.042Z,33.73
2017-09-19T22:31:30.953Z,34.50
2017-09-19T22:33:58.487Z,29.37
2017-09-19T22:36:26.018Z,31.80
2017-09-19T22:38:53.554Z,34.13
2017-09-19T22:41:21.866Z,33.70
2017-09-19T22:43:49.433Z,30.03
2017-09-19T22:46:17.019Z,34.87
2017-09-19T22:48:44.969Z,35.20
2017-09-19T22:51:12.485Z,28.03
2017-09-19T22:53:40.018Z,31.90
2017-09-19T22:56:07.552Z,33.47
2017-09-19T22:58:35.069Z,36.23
2017-09-19T23:01:02.621Z,39.60
2017-09-19T23:03:30.130Z,33.93
2017-09-19T23:05:57.661Z,34.37
2017-09-19T23:08:25.206Z,41.37
2017-09-19T23:10:52.753Z,32.70
2017-09-19T23:13:20.288Z,34.67
2017-09-19T23:15:48.584Z,28.87
2017-09-19T23:18:16.886Z,36.90
2017-09-19T23:20:44.480Z,30.77
2017-09-19T23:23:12.813Z,30.57
2017-09-19T23:25:40.369Z,27.50
2017-09-19T23:28:07.942Z,29.40
2017-09-19T23:30:35.500Z,34.90
2017-09-19T23:33:03.100Z,28.20
2017-09-19T23:35:30.640Z,28.60
2017-09-19T23:37:58.195Z,27.67
2017-09-19T23:40:25.726Z,33.40
2017-09-19T23:42:53.255Z,42.87
2017-09-19T23:45:21.563Z,50.07
2017-09-19T23:47:49.112Z,44.07
2017-09-19T23:50:16.634Z,44.80
2017-09-19T23:52:44.157Z,49.70
2017-09-19T23:55:11.665Z,47.13
2017-09-19T23:57:39.989Z,45.60
